Wingate, Texas
Current Conditions -  °F | °C
As of 12:58 PM on Thursday 30 Oct 2014 (Local Time) from KDYS Reporting Station
Clear Clear  
Wind Chill: 78°   Ceiling: Unl
Heat Index: 80°   Visibility: 10mi
Dew Point: 61°   Wind: 5mph
Humidity: 55%   Direction: NA
Pressure: 30.12"   Gusts: NA
Location:  32.04°N, 100.11°W
Report Text: KDYS 301758Z AUTO VRB04KT 10SM CLR 26/16 A3012 RMK AO2 SLP169 T02580162 10258 20140 58004 $
Loading
Personal Weather Stations






























Interactive Weather Map
Tropical Storm Tracking
New forecast layout! Learn more

10-Day Weather Forecast

Advertisements
Track Severe Weather on mobile